Time;durP1;ratioP1;P1;durP2;ratioP2;P2;SDS_P1;SDS_P2;PMS_P1;PMS_P2;Temp;Humidity;BMP_temperature;BMP_pressure;BME280_temperature;BME280_humidity;BME280_pressure;Samples;Min_cycle;Max_cycle;Signal;HPM_P1;HPM_P2
2022/06/11 00:01:47;;;;;;;16.80;10.70;;;;;;;15.40;100.00;100405.69;5092254;22;20244;-74
2022/06/11 00:04:27;;;;;;;21.40;10.13;;;;;;;15.44;100.00;100412.38;5102361;22;22866;-77
2022/06/11 00:06:57;;;;;;;13.17;8.50;;;;;;;15.46;100.00;100412.22;5089699;22;20419;-74
2022/06/11 00:09:24;;;;;;;13.70;8.60;;;;;;;15.49;100.00;100420.72;5106559;22;20250;-74
2022/06/11 00:11:52;;;;;;;12.53;7.70;;;;;;;15.58;100.00;100416.97;5108995;22;20202;-77
2022/06/11 00:14:21;;;;;;;12.53;8.13;;;;;;;15.65;100.00;100429.69;5100068;22;20207;-74
2022/06/11 00:16:48;;;;;;;10.03;7.10;;;;;;;15.66;100.00;100421.44;5085366;22;21480;-77
2022/06/11 00:19:15;;;;;;;8.87;6.80;;;;;;;15.65;100.00;100427.84;5086934;22;20721;-74
2022/06/11 00:21:43;;;;;;;14.87;7.90;;;;;;;15.66;99.59;100431.34;5107300;22;22274;-76
2022/06/11 00:24:10;;;;;;;10.60;7.33;;;;;;;15.79;99.34;100427.09;5103207;22;20203;-74
2022/06/11 00:26:38;;;;;;;12.33;7.73;;;;;;;15.78;99.16;100428.13;5101634;22;20857;-76
2022/06/11 00:29:05;;;;;;;13.07;7.83;;;;;;;15.68;99.07;100432.00;5106464;22;20253;-74
2022/06/11 00:31:32;;;;;;;16.13;7.97;;;;;;;15.62;99.75;100430.88;5114906;22;20205;-74
2022/06/11 00:33:59;;;;;;;14.43;8.07;;;;;;;15.55;100.00;100430.75;5099352;22;20269;-77
2022/06/11 00:36:25;;;;;;;13.83;8.40;;;;;;;15.47;100.00;100432.63;5106455;22;20743;-76
2022/06/11 00:38:52;;;;;;;15.13;8.50;;;;;;;15.38;100.00;100431.84;5102630;22;20206;-74
2022/06/11 00:41:22;;;;;;;10.97;7.30;;;;;;;15.38;100.00;100434.53;5091431;22;20265;-76
2022/06/11 00:43:48;;;;;;;14.23;7.73;;;;;;;15.41;100.00;100432.34;5073774;23;20212;-75
2022/06/11 00:46:40;;;;;;;17.43;8.13;;;;;;;15.38;100.00;100434.53;5078249;23;20325;-75
2022/06/11 00:49:17;;;;;;;14.77;8.13;;;;;;;15.43;100.00;100439.38;5073584;23;20210;-75
2022/06/11 00:51:44;;;;;;;12.40;7.70;;;;;;;15.43;100.00;100442.91;5107480;23;21173;-74
2022/06/11 00:54:16;;;;;;;15.37;7.67;;;;;;;15.51;100.00;100445.53;5080621;23;20207;-77
2022/06/11 00:56:47;;;;;;;12.23;8.00;;;;;;;15.38;100.00;100434.53;5064214;23;20200;-75
2022/06/11 00:59:17;;;;;;;11.03;8.40;;;;;;;15.30;100.00;100437.28;5097016;23;20215;-74
2022/06/11 01:01:47;;;;;;;14.73;7.60;;;;;;;15.23;100.00;100436.31;5083519;23;20221;-73
2022/06/11 01:04:41;;;;;;;10.13;7.20;;;;;;;15.19;100.00;100436.66;5067638;23;20269;-74
2022/06/11 01:07:23;;;;;;;8.60;6.93;;;;;;;15.13;100.00;100437.34;5071339;23;21630;-76
2022/06/11 01:10:01;;;;;;;9.43;6.40;;;;;;;15.07;100.00;100431.84;5073328;23;20326;-75
2022/06/11 01:12:46;;;;;;;11.90;7.07;;;;;;;14.98;100.00;100433.72;5074286;23;20264;-73
2022/06/11 01:15:33;;;;;;;10.00;6.50;;;;;;;15.04;100.00;100424.16;5078324;23;20495;-75
2022/06/11 01:18:38;;;;;;;11.27;6.80;;;;;;;14.96;100.00;100427.69;5079295;23;20206;-75
2022/06/11 01:21:21;;;;;;;9.33;6.33;;;;;;;15.04;100.00;100427.69;5095629;23;22884;-75
2022/06/11 01:24:25;;;;;;;11.07;7.13;;;;;;;14.94;100.00;100419.84;5060167;23;20203;-76
2022/06/11 01:26:57;;;;;;;11.00;6.63;;;;;;;14.85;100.00;100418.22;5102518;23;20389;-75
2022/06/11 01:29:49;;;;;;;8.70;6.70;;;;;;;14.79;100.00;100416.22;5063921;23;20366;-74
2022/06/11 01:32:20;;;;;;;9.13;6.20;;;;;;;14.81;100.00;100413.38;5071895;23;21846;-74
2022/06/11 01:35:10;;;;;;;8.30;6.50;;;;;;;14.87;100.00;100410.84;5091628;23;20202;-77
2022/06/11 01:37:45;;;;;;;9.37;6.17;;;;;;;14.85;100.00;100414.69;5055681;23;20208;-74
2022/06/11 01:40:20;;;;;;;11.03;6.10;;;;;;;14.83;100.00;100411.34;5040397;23;20210;-76
2022/06/11 01:42:53;;;;;;;8.97;6.20;;;;;;;14.85;100.00;100420.06;5055826;22;20210;-77
2022/06/11 01:45:30;;;;;;;10.23;7.20;;;;;;;14.78;100.00;100414.56;5052964;23;20231;-73
2022/06/11 01:47:58;;;;;;;11.47;7.27;;;;;;;14.83;100.00;100411.34;5096900;22;20282;-75
2022/06/11 01:50:26;;;;;;;11.23;6.97;;;;;;;14.75;100.00;100402.34;5076639;23;20232;-74
2022/06/11 01:53:00;;;;;;;9.63;6.93;;;;;;;14.69;100.00;100408.38;5120729;23;21290;-74
2022/06/11 01:55:54;;;;;;;11.17;7.07;;;;;;;14.60;100.00;100404.06;5088779;22;22054;-75
2022/06/11 01:58:30;;;;;;;9.30;6.90;;;;;;;14.62;100.00;100399.38;5125101;23;21197;-74
2022/06/11 02:01:10;;;;;;;8.43;6.23;;;;;;;14.47;100.00;100403.72;5093587;23;20624;-75
2022/06/11 02:04:03;;;;;;;10.20;6.80;;;;;;;14.42;100.00;100411.44;5100180;23;20915;-74
2022/06/11 02:06:47;;;;;;;7.47;6.03;;;;;;;14.43;100.00;100418.47;5112125;23;21789;-73
2022/06/11 02:09:19;;;;;;;11.63;6.83;;;;;;;14.33;100.00;100419.50;5092280;23;22728;-75
2022/06/11 02:11:49;;;;;;;9.23;6.30;;;;;;;14.31;100.00;100415.31;5118693;22;20206;-77
2022/06/11 02:14:16;;;;;;;7.90;5.70;;;;;;;14.28;100.00;100419.16;5088281;23;20206;-77
2022/06/11 02:16:47;;;;;;;9.27;5.93;;;;;;;14.17;100.00;100422.19;5113764;22;20889;-74
2022/06/11 02:19:18;;;;;;;9.07;5.63;;;;;;;14.25;100.00;100416.81;5128755;22;21414;-75
2022/06/11 02:21:49;;;;;;;10.20;6.17;;;;;;;14.22;100.00;100419.00;5090082;23;20733;-74
2022/06/11 02:24:31;;;;;;;9.23;5.60;;;;;;;14.09;99.63;100416.81;5117164;23;20286;-76
2022/06/11 02:27:04;;;;;;;9.53;5.63;;;;;;;13.92;99.50;100411.47;5114044;22;20405;-75
2022/06/11 02:29:32;;;;;;;6.00;4.77;;;;;;;13.99;98.88;100416.16;5162039;22;20214;-74
2022/06/11 02:32:05;;;;;;;7.37;4.43;;;;;;;13.96;97.82;100411.16;5110475;22;21978;-74
2022/06/11 02:34:32;;;;;;;6.10;4.43;;;;;;;13.91;97.52;100420.53;5096928;22;20210;-74
2022/06/11 02:37:03;;;;;;;6.13;4.37;;;;;;;13.76;98.07;100416.81;5080337;23;20290;-74
2022/06/11 02:39:32;;;;;;;5.67;3.97;;;;;;;13.90;97.04;100418.84;5102663;22;21851;-73
2022/06/11 02:42:01;;;;;;;5.13;3.17;;;;;;;13.88;95.78;100415.50;5107228;23;21717;-74
2022/06/11 02:44:28;;;;;;;6.97;3.80;;;;;;;13.71;95.78;100417.31;5117342;22;20286;-76
2022/06/11 02:46:54;;;;;;;4.53;3.60;;;;;;;13.62;96.82;100414.81;5146119;23;21661;-74
2022/06/11 02:49:25;;;;;;;5.23;3.30;;;;;;;13.70;95.91;100418.34;5132223;23;20265;-75
2022/06/11 02:51:55;;;;;;;4.50;3.33;;;;;;;13.77;95.29;100413.16;5142263;22;20299;-73
2022/06/11 02:54:23;;;;;;;4.20;3.10;;;;;;;13.90;94.62;100415.31;5156488;22;20246;-74
2022/06/11 02:56:51;;;;;;;7.57;3.40;;;;;;;13.90;94.43;100418.00;5122777;23;20626;-74
2022/06/11 02:59:19;;;;;;;4.03;3.10;;;;;;;13.93;94.04;100421.19;5106762;23;20270;-75
2022/06/11 03:01:47;;;;;;;4.47;3.23;;;;;;;13.92;93.50;100421.34;5141206;23;20240;-75
2022/06/11 03:04:14;;;;;;;6.77;3.40;;;;;;;13.91;92.90;100419.69;5114785;23;20213;-77
2022/06/11 03:06:42;;;;;;;4.73;3.10;;;;;;;13.76;93.99;100419.50;5130523;22;20202;-74
2022/06/11 03:09:11;;;;;;;6.30;3.20;;;;;;;13.80;93.93;100420.00;5107766;22;22636;-76
2022/06/11 03:11:38;;;;;;;4.40;3.10;;;;;;;13.81;93.91;100427.84;5132955;23;20751;-75
2022/06/11 03:14:05;;;;;;;4.20;2.67;;;;;;;13.86;93.67;100425.53;5109220;23;25834;-75
2022/06/11 03:16:31;;;;;;;5.33;3.00;;;;;;;13.90;93.39;100424.19;5120526;23;21534;-75
2022/06/11 03:18:59;;;;;;;4.97;3.13;;;;;;;13.93;93.44;100429.22;5091358;22;20652;-74
2022/06/11 03:21:25;;;;;;;5.47;3.10;;;;;;;13.93;93.20;100423.88;5106958;22;21331;-75
2022/06/11 03:23:52;;;;;;;5.50;3.10;;;;;;;13.97;92.46;100415.50;5114030;22;20203;-74
2022/06/11 03:26:18;;;;;;;2.63;2.17;;;;;;;14.13;91.96;100419.00;5140263;23;20202;-74
2022/06/11 03:28:45;;;;;;;4.57;3.00;;;;;;;14.15;91.13;100417.00;5116695;23;20258;-74
2022/06/11 03:31:11;;;;;;;4.50;2.87;;;;;;;14.11;91.12;100420.16;5111885;22;22585;-74
2022/06/11 03:33:39;;;;;;;3.53;2.50;;;;;;;14.14;91.00;100417.16;5101729;22;20289;-74
2022/06/11 03:36:09;;;;;;;5.70;2.70;;;;;;;14.23;90.54;100418.81;5114475;23;21577;-73
2022/06/11 03:38:37;;;;;;;3.57;2.80;;;;;;;14.25;90.89;100421.34;5117978;22;20211;-74
2022/06/11 03:41:04;;;;;;;4.17;2.70;;;;;;;14.33;90.25;100426.69;5091347;23;20354;-74
2022/06/11 03:43:32;;;;;;;3.63;2.23;;;;;;;14.41;89.48;100428.50;5075219;23;20215;-74
2022/06/11 03:45:58;;;;;;;3.90;2.70;;;;;;;14.48;89.41;100429.50;5092800;23;20203;-76
2022/06/11 03:48:28;;;;;;;3.20;2.60;;;;;;;14.60;89.06;100430.00;5103722;23;25004;-75
2022/06/11 03:50:58;;;;;;;4.60;2.80;;;;;;;14.69;88.99;100435.16;5088900;23;20210;-74
2022/06/11 03:53:24;;;;;;;6.80;2.70;;;;;;;14.81;87.92;100426.75;5089489;23;20203;-75
2022/06/11 03:55:51;;;;;;;2.67;2.10;;;;;;;14.92;87.23;100427.22;5096256;23;21540;-74
2022/06/11 03:58:19;;;;;;;4.97;2.13;;;;;;;15.08;86.05;100437.03;5103275;22;23451;-75
2022/06/11 04:03:32;;;;;;;3.23;2.13;;;;;;;15.29;84.05;100435.56;5107151;23;21233;-76
2022/06/11 04:05:59;;;;;;;4.33;1.93;;;;;;;15.42;83.55;100446.56;5093936;23;20334;-74
2022/06/11 04:08:26;;;;;;;2.60;1.63;;;;;;;15.46;80.49;100452.44;5083374;23;20202;-75
2022/06/11 04:10:56;;;;;;;3.83;1.93;;;;;;;15.37;80.19;100443.59;5090801;23;20304;-75
2022/06/11 04:13:24;;;;;;;2.00;1.50;;;;;;;15.50;79.49;100443.88;5095673;23;22085;-73
2022/06/11 04:15:51;;;;;;;4.27;1.50;;;;;;;15.60;78.91;100443.63;5082540;23;20210;-74
2022/06/11 04:18:26;;;;;;;6.30;1.80;;;;;;;15.52;78.34;100447.22;5085548;23;20207;-75
2022/06/11 04:20:53;;;;;;;4.07;1.90;;;;;;;15.53;78.86;100446.19;5097451;23;22078;-77
2022/06/11 04:23:20;;;;;;;2.67;1.60;;;;;;;15.60;77.91;100439.09;5100762;23;22783;-74
2022/06/11 04:25:47;;;;;;;2.60;1.80;;;;;;;15.80;76.67;100441.34;5084178;23;20206;-75
2022/06/11 04:28:13;;;;;;;5.17;1.80;;;;;;;15.94;76.69;100445.09;5107141;23;21301;-75
2022/06/11 04:30:40;;;;;;;3.33;1.47;;;;;;;16.08;75.72;100448.84;5117790;23;20203;-75
2022/06/11 04:33:07;;;;;;;2.10;1.63;;;;;;;16.25;74.07;100453.91;5109415;23;20205;-75
2022/06/11 04:35:34;;;;;;;2.40;1.40;;;;;;;16.46;73.90;100447.81;5131122;23;20276;-75
2022/06/11 04:38:01;;;;;;;2.20;1.43;;;;;;;16.58;73.25;100458.13;5096559;23;23642;-74
2022/06/11 04:40:27;;;;;;;1.87;1.20;;;;;;;16.60;71.22;100454.25;5124655;22;20236;-74
2022/06/11 04:42:54;;;;;;;3.63;1.10;;;;;;;16.67;70.63;100459.72;5104938;23;21796;-74
2022/06/11 04:45:21;;;;;;;2.63;1.80;;;;;;;16.70;69.64;100456.66;5101218;23;21461;-76
2022/06/11 04:47:48;;;;;;;1.80;1.33;;;;;;;16.65;70.41;100456.38;5115006;23;20241;-74
2022/06/11 04:50:16;;;;;;;2.10;1.30;;;;;;;16.63;70.28;100456.53;5084159;23;20206;-75
2022/06/11 04:52:43;;;;;;;1.43;1.10;;;;;;;16.70;68.94;100462.03;5091079;23;20206;-75
2022/06/11 04:55:09;;;;;;;1.67;1.23;;;;;;;16.77;68.39;100456.75;5114172;23;20680;-75
2022/06/11 04:57:36;;;;;;;1.50;1.20;;;;;;;16.48;67.64;100462.91;5099563;23;20261;-73
2022/06/11 05:00:04;;;;;;;0.93;0.83;;;;;;;16.62;68.15;100464.78;5083247;23;20617;-73
2022/06/11 05:02:31;;;;;;;5.97;2.50;;;;;;;16.65;69.23;100464.44;5103628;23;20213;-74
2022/06/11 05:04:57;;;;;;;2.83;1.77;;;;;;;16.74;69.36;100463.31;5108971;22;22422;-73
2022/06/11 05:07:24;;;;;;;1.90;1.30;;;;;;;16.70;72.15;100470.09;5100280;23;21119;-75
2022/06/11 05:09:50;;;;;;;3.93;2.03;;;;;;;16.88;72.61;100465.22;5108617;23;20202;-75
2022/06/11 05:12:18;;;;;;;2.47;1.70;;;;;;;17.03;72.93;100467.06;5110483;22;20203;-73
2022/06/11 05:14:44;;;;;;;3.80;1.77;;;;;;;17.09;71.95;100466.28;5121727;23;20334;-74
2022/06/11 05:17:11;;;;;;;3.17;1.80;;;;;;;16.88;72.01;100461.69;5098669;22;20202;-73
2022/06/11 05:19:37;;;;;;;4.30;2.00;;;;;;;16.85;70.38;100465.56;5108619;23;20210;-74
2022/06/11 05:22:04;;;;;;;3.37;2.00;;;;;;;17.29;69.85;100464.69;5087396;23;20558;-75
2022/06/11 05:24:31;;;;;;;2.63;1.50;;;;;;;18.22;67.49;100477.50;5108386;23;20210;-73
2022/06/11 05:27:00;;;;;;;5.53;2.40;;;;;;;18.33;64.50;100485.03;5117663;23;21187;-73
2022/06/11 05:29:31;;;;;;;5.57;2.20;;;;;;;18.50;64.35;100486.44;5105713;23;22844;-74
2022/06/11 05:31:57;;;;;;;3.43;1.90;;;;;;;19.10;62.73;100491.41;5093275;23;20315;-73
2022/06/11 05:34:26;;;;;;;5.20;2.47;;;;;;;19.56;60.76;100490.78;5092987;23;20276;-74
2022/06/11 05:36:53;;;;;;;6.97;2.10;;;;;;;20.24;58.27;100494.25;5098581;23;20622;-73
2022/06/11 05:39:19;;;;;;;5.73;2.17;;;;;;;21.29;55.98;100507.03;5092274;23;20835;-73
2022/06/11 05:41:46;;;;;;;5.00;2.77;;;;;;;22.02;53.11;100511.28;5115792;23;25909;-73
2022/06/11 05:44:13;;;;;;;6.80;2.50;;;;;;;22.65;51.29;100522.09;5061740;23;22305;-73
2022/06/11 05:46:39;;;;;;;4.60;2.93;;;;;;;23.05;48.82;100523.63;5083939;23;20246;-72
2022/06/11 05:49:09;;;;;;;5.80;2.70;;;;;;;22.90;49.49;100527.50;5096098;23;20210;-71
2022/06/11 05:51:42;;;;;;;7.83;2.73;;;;;;;22.54;50.16;100522.81;5091797;23;20257;-72
2022/06/11 05:54:12;;;;;;;5.90;2.63;;;;;;;23.23;49.15;100522.81;5101598;23;20198;-72
2022/06/11 05:56:39;;;;;;;5.30;2.50;;;;;;;23.88;46.30;100536.63;5086575;23;20199;-72
2022/06/11 05:59:09;;;;;;;5.27;2.00;;;;;;;23.61;47.58;100533.41;5071217;23;22518;-73
2022/06/11 06:01:39;;;;;;;2.83;2.00;;;;;;;24.25;44.70;100539.22;5068293;23;20665;-69
2022/06/11 06:04:06;;;;;;;7.03;2.00;;;;;;;23.59;46.81;100543.66;5089535;23;20254;-73
2022/06/11 06:06:33;;;;;;;4.87;2.10;;;;;;;23.28;47.93;100534.63;5088988;23;20597;-70
2022/06/11 06:08:59;;;;;;;4.00;1.90;;;;;;;23.36;47.72;100538.94;5087300;23;23375;-70
2022/06/11 06:11:26;;;;;;;8.10;1.90;;;;;;;23.23;48.29;100536.38;5080207;23;20868;-74
2022/06/11 06:13:55;;;;;;;4.43;2.07;;;;;;;24.82;43.53;100555.91;5095246;23;20199;-71
2022/06/11 06:16:24;;;;;;;4.83;1.70;;;;;;;24.38;44.48;100552.63;5084232;23;21768;-67
2022/06/11 06:18:52;;;;;;;2.77;1.73;;;;;;;24.01;46.63;100547.31;5080993;23;20320;-69
2022/06/11 06:21:21;;;;;;;4.30;1.97;;;;;;;23.18;47.44;100547.91;5103097;23;21169;-71
2022/06/11 06:23:47;;;;;;;4.43;1.70;;;;;;;23.26;47.53;100544.88;5079536;23;20202;-74
2022/06/11 06:26:14;;;;;;;6.33;1.60;;;;;;;22.60;48.82;100542.81;5096583;23;20210;-73
2022/06/11 06:28:41;;;;;;;2.17;1.87;;;;;;;21.50;51.97;100531.16;5056200;23;21393;-70
2022/06/11 06:31:08;;;;;;;3.53;1.60;;;;;;;21.61;53.10;100537.78;5100446;23;20203;-69
2022/06/11 06:33:35;;;;;;;2.73;1.47;;;;;;;23.85;46.11;100553.38;5106460;23;20205;-72
2022/06/11 06:36:05;;;;;;;3.67;1.60;;;;;;;24.41;44.02;100556.75;5077125;23;21730;-52
2022/06/11 06:38:32;;;;;;;2.30;1.40;;;;;;;25.79;40.39;100567.25;5113113;23;20213;-71
2022/06/11 06:40:58;;;;;;;2.37;1.60;;;;;;;25.25;42.02;100562.88;5089744;23;20616;-72
2022/06/11 06:43:26;;;;;;;2.67;1.80;;;;;;;25.27;42.43;100565.38;5112769;22;20231;-72
2022/06/11 06:45:53;;;;;;;4.10;1.73;;;;;;;26.55;39.43;100572.50;5078458;22;22863;-72
2022/06/11 06:48:19;;;;;;;2.53;1.60;;;;;;;26.63;36.88;100583.03;5089630;22;21805;-73
2022/06/11 06:50:46;;;;;;;6.40;3.07;;;;;;;27.83;35.79;100596.19;5084492;22;20251;-71
2022/06/11 06:53:13;;;;;;;3.33;1.40;;;;;;;28.35;33.08;100587.47;5099923;22;20237;-71
2022/06/11 06:55:40;;;;;;;5.00;1.70;;;;;;;28.95;32.07;100589.06;5047865;22;20203;-72
2022/06/11 06:58:07;;;;;;;2.73;1.40;;;;;;;29.31;31.12;100592.06;5103817;22;20317;-73
2022/06/11 07:00:34;;;;;;;2.87;1.50;;;;;;;30.86;29.14;100602.34;5104187;22;20206;-72
2022/06/11 07:03:00;;;;;;;4.53;1.70;;;;;;;30.75;29.26;100601.53;5124664;22;20211;-70
2022/06/11 07:05:27;;;;;;;3.07;1.30;;;;;;;30.32;29.61;100602.88;5122507;22;20261;-74
2022/06/11 07:07:54;;;;;;;4.87;1.40;;;;;;;28.28;31.60;100589.59;5101086;22;20254;-72
2022/06/11 07:10:22;;;;;;;4.97;1.30;;;;;;;25.73;36.39;100576.41;5119907;22;20206;-75
2022/06/11 07:12:49;;;;;;;3.77;1.47;;;;;;;25.76;37.49;100584.94;5106461;22;20457;-73
2022/06/11 07:15:16;;;;;;;2.70;1.27;;;;;;;26.41;35.42;100580.16;5130077;22;25626;-73
2022/06/11 07:18:11;;;;;;;3.37;1.60;;;;;;;25.84;36.70;100575.53;5103667;22;21947;-73
2022/06/11 07:20:38;;;;;;;3.40;1.30;;;;;;;25.33;36.06;100574.47;5153071;22;20439;-72
2022/06/11 07:23:16;;;;;;;5.27;1.60;;;;;;;25.69;36.21;100585.06;5123019;22;21275;-75
2022/06/11 07:25:44;;;;;;;3.17;1.50;;;;;;;25.38;38.39;100577.31;5141109;22;21658;-73
2022/06/11 07:28:34;;;;;;;2.43;1.43;;;;;;;26.26;36.58;100586.16;5136528;22;20268;-73
2022/06/11 07:31:01;;;;;;;3.37;1.47;;;;;;;26.70;34.46;100583.69;5137589;22;21703;-76
2022/06/11 07:33:28;;;;;;;2.43;1.50;;;;;;;25.62;36.61;100576.19;5146957;22;25282;-70
2022/06/11 07:35:57;;;;;;;3.03;1.63;;;;;;;25.79;37.17;100575.44;5086040;23;20258;-73
2022/06/11 07:38:27;;;;;;;4.00;1.50;;;;;;;24.91;38.61;100571.88;5109969;22;20410;-74
2022/06/11 07:40:54;;;;;;;5.27;1.90;;;;;;;24.98;38.58;100573.44;5095398;22;20212;-75
2022/06/11 07:43:21;;;;;;;3.90;1.80;;;;;;;23.74;41.21;100565.03;5111274;22;20222;-73
2022/06/11 07:45:48;;;;;;;2.87;1.50;;;;;;;24.25;40.19;100563.69;5109679;22;20216;-74
2022/06/11 07:48:15;;;;;;;3.20;1.53;;;;;;;24.48;39.70;100567.56;5108774;22;22491;-76
2022/06/11 07:50:47;;;;;;;2.73;1.40;;;;;;;24.11;40.96;100568.50;5092848;23;20199;-75
2022/06/11 07:53:15;;;;;;;4.40;1.30;;;;;;;24.42;38.84;100563.88;5118507;22;20206;-78
2022/06/11 07:55:45;;;;;;;2.13;1.30;;;;;;;24.36;39.38;100565.63;5097620;22;20302;-73
2022/06/11 07:58:13;;;;;;;2.43;1.37;;;;;;;24.50;38.36;100569.00;5112329;22;20953;-76
2022/06/11 08:00:42;;;;;;;4.80;1.30;;;;;;;24.29;40.63;100559.44;5076437;22;20207;-76
2022/06/11 08:03:09;;;;;;;5.13;1.50;;;;;;;23.67;41.77;100566.97;5104627;22;22800;-73
2022/06/11 08:05:36;;;;;;;2.77;1.60;;;;;;;23.65;41.89;100563.66;5085312;23;21186;-75
2022/06/11 08:08:04;;;;;;;5.40;1.50;;;;;;;24.08;40.84;100558.09;5166530;22;20629;-73
2022/06/11 08:10:30;;;;;;;4.17;1.37;;;;;;;24.10;40.80;100568.75;5119214;22;23359;-61
2022/06/11 08:12:57;;;;;;;7.53;4.20;;;;;;;24.52;38.43;100572.31;5124972;22;25793;-63
2022/06/11 08:15:25;;;;;;;5.53;1.40;;;;;;;23.90;38.85;100560.84;5115416;22;21164;-59
2022/06/11 08:17:52;;;;;;;5.13;1.50;;;;;;;24.19;38.42;100553.75;5165060;22;20214;-71
2022/06/11 08:20:24;;;;;;;4.07;1.60;;;;;;;23.46;39.48;100550.09;5103949;23;20211;-73
2022/06/11 08:22:52;;;;;;;3.63;1.60;;;;;;;23.68;40.31;100555.06;5157006;22;20202;-69
2022/06/11 08:25:21;;;;;;;3.60;1.13;;;;;;;23.59;41.10;100555.34;5132677;22;20230;-72
2022/06/11 08:27:51;;;;;;;2.10;1.10;;;;;;;23.35;39.12;100565.25;5093804;22;20208;-69
2022/06/11 08:30:20;;;;;;;3.00;1.20;;;;;;;23.10;40.34;100557.16;5116597;22;20422;-72
2022/06/11 08:32:48;;;;;;;3.33;1.20;;;;;;;23.84;39.50;100556.34;5083656;22;26152;-58
2022/06/11 08:35:15;;;;;;;3.80;1.60;;;;;;;23.94;37.88;100562.88;5110661;22;20219;-59
2022/06/11 08:37:43;;;;;;;3.87;1.60;;;;;;;24.20;37.23;100550.78;5087076;22;20407;-52
2022/06/11 08:40:20;;;;;;;5.77;1.93;;;;;;;24.42;37.20;100556.53;5084202;22;20212;-55
2022/06/11 08:42:55;;;;;;;4.73;2.00;;;;;;;24.32;37.28;100547.28;5074810;22;20908;-52
2022/06/11 08:45:26;;;;;;;4.73;1.30;;;;;;;23.30;39.41;100545.28;5078175;22;20205;-72
2022/06/11 08:47:59;;;;;;;2.73;1.10;;;;;;;22.65;41.44;100537.53;5099352;22;20372;-75
2022/06/11 08:50:37;;;;;;;3.50;1.30;;;;;;;22.24;39.75;100534.31;5116628;22;20285;-72
2022/06/11 08:53:05;;;;;;;2.80;0.90;;;;;;;21.95;40.95;100526.75;5086212;22;20212;-73
2022/06/11 08:55:36;;;;;;;7.67;1.10;;;;;;;21.97;42.95;100524.66;5088317;22;22268;-73
2022/06/11 08:58:15;;;;;;;5.40;1.30;;;;;;;21.97;41.93;100530.09;5117985;22;20202;-74
2022/06/11 09:00:47;;;;;;;3.33;1.10;;;;;;;21.87;42.88;100525.16;5117274;22;21249;-79
2022/06/11 09:03:33;;;;;;;4.90;1.40;;;;;;;21.54;42.83;100519.88;5143078;22;21479;-76
2022/06/11 09:06:24;;;;;;;7.20;1.27;;;;;;;21.90;44.08;100519.28;5123351;22;20504;-74
2022/06/11 09:09:11;;;;;;;2.80;1.13;;;;;;;22.05;41.26;100521.69;5323239;22;21028;-76
2022/06/11 09:12:00;;;;;;;2.93;1.30;;;;;;;22.46;41.58;100520.38;5278146;22;20216;-76
2022/06/11 09:14:52;;;;;;;4.93;1.07;;;;;;;22.40;37.33;100526.69;5281753;22;20201;-75
2022/06/11 09:17:36;;;;;;;6.27;0.90;;;;;;;22.74;36.82;100520.75;5253826;22;23795;-74
2022/06/11 09:20:26;;;;;;;4.40;1.00;;;;;;;22.74;37.20;100523.47;5297533;22;25012;-78
2022/06/11 09:23:24;;;;;;;4.57;1.40;;;;;;;22.26;39.10;100515.94;5179782;22;21053;-72
2022/06/11 09:26:04;;;;;;;2.10;1.07;;;;;;;22.38;39.01;100517.94;5230286;22;21681;-74
2022/06/11 09:28:39;;;;;;;3.20;0.97;;;;;;;22.26;38.05;100507.81;5227055;23;20284;-77
2022/06/11 09:31:20;;;;;;;5.10;1.00;;;;;;;22.10;40.92;100514.59;5128096;22;21648;-79
2022/06/11 09:34:05;;;;;;;4.70;1.57;;;;;;;22.17;39.41;100495.53;5142069;22;20285;-76
2022/06/11 09:36:42;;;;;;;3.77;1.10;;;;;;;22.21;39.58;100494.09;5182266;22;20206;-75
2022/06/11 09:39:30;;;;;;;2.87;1.40;;;;;;;22.28;39.29;100492.16;5178721;23;20217;-73
2022/06/11 09:41:59;;;;;;;1.83;0.87;;;;;;;22.33;36.94;100508.56;5128365;23;20215;-75
2022/06/11 09:44:28;;;;;;;4.63;1.23;;;;;;;21.88;37.95;100505.94;5150657;23;21817;-77
2022/06/11 09:47:09;;;;;;;4.20;0.70;;;;;;;22.20;37.36;100503.25;5135651;22;21194;-74
2022/06/11 09:49:56;;;;;;;2.77;1.27;;;;;;;22.10;39.36;100502.88;5113964;22;20205;-64
2022/06/11 09:52:37;;;;;;;3.63;0.80;;;;;;;22.16;35.94;100512.84;5150427;22;20202;-61
2022/06/11 09:55:27;;;;;;;1.27;0.80;;;;;;;22.39;35.72;100514.19;5103885;22;25338;-68
2022/06/11 09:58:18;;;;;;;2.53;1.00;;;;;;;22.39;35.23;100516.91;5088938;22;22056;-58
2022/06/11 10:01:01;;;;;;;3.00;0.93;;;;;;;22.47;36.69;100512.00;5091190;22;20268;-55
2022/06/11 10:03:30;;;;;;;1.83;0.80;;;;;;;22.53;35.13;100521.16;5079753;22;20202;-59
2022/06/11 10:06:11;;;;;;;4.77;0.90;;;;;;;22.53;35.40;100518.44;5095116;22;20206;-72
2022/06/11 10:08:46;;;;;;;2.50;0.87;;;;;;;22.36;35.96;100506.47;5089845;22;20207;-75
2022/06/11 10:11:19;;;;;;;2.03;0.90;;;;;;;22.18;36.36;100504.53;5077758;22;20557;-76
2022/06/11 10:14:28;;;;;;;2.87;0.87;;;;;;;21.83;38.65;100496.81;5084612;22;20198;-76
2022/06/11 10:16:49;;;;;;;1.60;1.10;;;;;;;21.57;37.37;100500.50;5077382;22;20249;-75
2022/06/11 10:19:25;;;;;;;1.97;1.03;;;;;;;21.86;38.16;100504.50;5079691;22;20915;-75
2022/06/11 10:22:06;;;;;;;3.37;0.80;;;;;;;21.91;37.31;100500.13;5093070;22;20210;-74
2022/06/11 10:24:34;;;;;;;2.23;1.00;;;;;;;21.86;38.42;100502.63;5090067;22;20219;-74
2022/06/11 10:27:09;;;;;;;2.37;0.90;;;;;;;21.85;35.29;100495.56;5078084;22;20468;-78
2022/06/11 10:29:41;;;;;;;1.57;1.00;;;;;;;21.88;38.49;100500.53;5124932;22;23272;-76
2022/06/11 10:32:14;;;;;;;3.93;1.37;;;;;;;22.09;36.47;100502.06;5091327;23;23198;-77
2022/06/11 10:34:50;;;;;;;3.90;1.23;;;;;;;21.95;36.88;100500.50;5083455;23;22175;-78
2022/06/11 10:37:30;;;;;;;3.07;1.33;;;;;;;21.70;37.88;100497.72;5102204;22;20253;-76
2022/06/11 10:40:09;;;;;;;1.60;1.30;;;;;;;21.92;39.17;100500.94;5081060;22;20707;-78
2022/06/11 10:42:43;;;;;;;3.50;1.20;;;;;;;22.10;40.49;100487.47;5090079;22;20213;-76
2022/06/11 10:45:14;;;;;;;3.10;1.80;;;;;;;21.90;40.51;100484.88;5105212;22;22483;-74
2022/06/11 10:47:44;;;;;;;6.20;1.57;;;;;;;22.16;40.01;100491.19;5097965;22;20202;-74
2022/06/11 10:50:11;;;;;;;1.20;0.83;;;;;;;22.39;34.82;100495.22;5120263;22;20209;-75
2022/06/11 10:52:56;;;;;;;1.33;0.70;;;;;;;22.44;34.69;100500.78;5103420;22;20979;-73
2022/06/11 10:55:32;;;;;;;2.93;0.90;;;;;;;22.65;34.33;100492.25;5104049;22;20209;-77
2022/06/11 10:58:10;;;;;;;2.43;0.80;;;;;;;22.51;33.47;100496.16;5138134;22;21133;-76
2022/06/11 11:00:59;;;;;;;2.63;0.80;;;;;;;22.49;33.79;100487.41;5064378;23;20939;-78
2022/06/11 11:03:46;;;;;;;1.57;0.80;;;;;;;22.24;36.41;100481.97;5109423;22;20244;-75
2022/06/11 11:06:26;;;;;;;4.17;1.10;;;;;;;22.18;36.71;100472.81;5127925;22;21024;-72
2022/06/11 11:08:55;;;;;;;3.87;0.90;;;;;;;22.29;38.08;100474.84;5083650;22;20271;-78
2022/06/11 11:11:23;;;;;;;2.50;1.10;;;;;;;22.47;36.09;100476.75;5085653;22;20213;-74
2022/06/11 11:14:05;;;;;;;3.37;1.10;;;;;;;22.63;37.18;100464.53;5071317;22;20208;-76
2022/06/11 11:16:36;;;;;;;4.93;1.70;;;;;;;22.91;36.55;100474.03;5104727;22;20210;-74
2022/06/11 11:19:19;;;;;;;2.00;0.97;;;;;;;23.17;36.44;100475.66;5089678;22;20900;-76
2022/06/11 11:21:53;;;;;;;2.13;1.20;;;;;;;23.10;36.68;100469.47;5071169;23;21809;-73
2022/06/11 11:24:34;;;;;;;2.23;1.13;;;;;;;23.01;36.88;100466.22;5102422;22;20213;-74
2022/06/11 11:27:09;;;;;;;5.73;1.30;;;;;;;22.84;37.46;100462.44;5083080;22;20775;-74
2022/06/11 11:29:38;;;;;;;2.33;1.10;;;;;;;22.71;38.57;100466.09;5073666;22;21569;-74
2022/06/11 11:32:25;;;;;;;3.77;2.27;;;;;;;22.38;39.94;100455.56;5077764;22;21720;-74
2022/06/11 11:34:51;;;;;;;3.20;1.07;;;;;;;22.41;41.35;100452.44;5097494;22;20580;-76
2022/06/11 11:37:32;;;;;;;3.07;1.20;;;;;;;22.67;40.58;100456.78;5073672;22;20204;-77
2022/06/11 11:40:02;;;;;;;3.67;1.20;;;;;;;22.69;39.15;100458.22;5060977;22;22392;-75
2022/06/11 11:42:38;;;;;;;3.00;1.60;;;;;;;22.86;39.40;100447.59;5090652;22;20274;-75
2022/06/11 11:45:26;;;;;;;2.30;1.30;;;;;;;22.73;40.02;100442.28;5073777;22;20844;-76
2022/06/11 11:47:59;;;;;;;1.77;1.13;;;;;;;22.87;38.14;100448.41;5096069;22;20206;-73